Aviation Digital Data Service (ADDS)

Output produced by METARs form (0639 UTC 23 February 2018)
found at http://aviationweather.gov/adds/metars/
 
KSMF 230553Z 00000KT 10SM CLR 02/02 A3019 RMK AO2 SLP224 60001 T00170017 10100 20017 53017
KSMF 230520Z 2306/2406 32005KT P6SM SKC 
     FM231900 33013G20KT P6SM SKC 
     FM240100 33007KT P6SM SKC